Time;durP1;ratioP1;P1;durP2;ratioP2;P2;SDS_P1;SDS_P2;PMS_P1;PMS_P2;Temp;Humidity;BMP_temperature;BMP_pressure;BME280_temperature;BME280_humidity;BME280_pressure;Samples;Min_cycle;Max_cycle;Signal;HPM_P1;HPM_P2
2023/05/30 00:01:13;;;;;;;9.93;6.10;;;18.10;60.00;;;;;;5009793;28;20189;-73
2023/05/30 00:03:39;;;;;;;13.07;6.20;;;18.10;60.30;;;;;;5010532;28;20190;-73
2023/05/30 00:06:05;;;;;;;11.70;6.00;;;18.00;60.70;;;;;;5009073;28;20430;-73
2023/05/30 00:08:31;;;;;;;9.53;6.10;;;17.90;61.20;;;;;;5002042;28;20219;-73
2023/05/30 00:10:56;;;;;;;9.67;5.97;;;17.80;61.50;;;;;;5008361;28;20433;-74
2023/05/30 00:13:22;;;;;;;11.13;6.20;;;17.80;61.70;;;;;;5009398;28;20197;-73
2023/05/30 00:15:48;;;;;;;10.00;5.57;;;17.70;62.00;;;;;;5001050;28;20183;-72
2023/05/30 00:18:14;;;;;;;11.73;5.80;;;17.60;62.30;;;;;;5005808;28;20481;-73
2023/05/30 00:20:40;;;;;;;9.70;6.37;;;17.60;62.50;;;;;;4999320;28;20429;-73
2023/05/30 00:23:05;;;;;;;7.63;5.40;;;17.50;62.80;;;;;;5012800;28;20227;-74
2023/05/30 00:25:32;;;;;;;11.43;5.27;;;17.40;63.10;;;;;;5004724;28;20188;-73
2023/05/30 00:27:58;;;;;;;9.23;5.43;;;17.40;63.20;;;;;;5010170;28;20273;-73
2023/05/30 00:30:25;;;;;;;11.37;5.53;;;17.30;63.50;;;;;;5006813;28;20803;-73
2023/05/30 00:32:51;;;;;;;10.90;5.70;;;17.30;63.70;;;;;;5010210;28;20786;-73
2023/05/30 00:35:17;;;;;;;10.67;5.60;;;17.30;63.70;;;;;;5008483;28;20464;-74
2023/05/30 00:37:42;;;;;;;11.57;6.80;;;17.20;63.80;;;;;;5010944;28;20196;-72
2023/05/30 00:40:08;;;;;;;10.93;6.50;;;17.20;63.90;;;;;;5003773;28;20219;-75
2023/05/30 00:42:34;;;;;;;11.00;6.70;;;17.20;64.20;;;;;;5003520;28;20191;-72
2023/05/30 00:45:00;;;;;;;9.80;6.20;;;17.10;64.40;;;;;;5007546;28;20418;-72
2023/05/30 00:47:26;;;;;;;9.33;5.70;;;17.00;64.50;;;;;;5009405;28;20645;-74
2023/05/30 00:49:54;;;;;;;9.33;5.90;;;17.00;64.50;;;;;;5003527;28;20241;-74
2023/05/30 00:52:20;;;;;;;8.70;5.83;;;17.00;64.80;;;;;;5006123;28;21085;-71
2023/05/30 00:54:47;;;;;;;9.57;6.00;;;16.80;65.10;;;;;;5008393;28;20504;-74
2023/05/30 00:57:14;;;;;;;9.53;5.77;;;16.80;65.30;;;;;;5006786;28;20418;-72
2023/05/30 00:59:40;;;;;;;9.23;5.40;;;16.80;65.60;;;;;;5006138;28;20487;-75
2023/05/30 01:02:05;;;;;;;10.93;6.07;;;16.80;65.40;;;;;;5009603;28;20426;-73
2023/05/30 01:04:32;;;;;;;11.00;5.73;;;16.90;65.40;;;;;;5010783;28;20711;-73
2023/05/30 01:06:59;;;;;;;10.20;5.63;;;16.90;65.60;;;;;;5013031;28;20420;-73
2023/05/30 01:09:24;;;;;;;8.20;5.50;;;16.80;65.40;;;;;;5010153;28;20464;-75
2023/05/30 01:12:18;;;;;;;7.87;5.17;;;16.80;65.70;;;;;;5010078;28;20520;-75
2023/05/30 01:15:03;;;;;;;10.77;4.90;;;16.80;65.70;;;;;;5013630;28;20186;-77
2023/05/30 01:17:45;;;;;;;7.37;4.67;;;16.80;65.30;;;;;;5004177;28;20460;-75
2023/05/30 01:20:13;;;;;;;11.67;5.50;;;16.80;65.40;;;;;;5006093;28;20787;-75
2023/05/30 01:23:14;;;;;;;9.43;5.40;;;16.90;65.30;;;;;;5010188;28;20425;-75
2023/05/30 01:25:59;;;;;;;10.40;5.87;;;17.00;65.00;;;;;;5003095;28;20460;-75
2023/05/30 01:28:28;;;;;;;8.33;4.50;;;17.10;64.70;;;;;;5009398;28;20494;-75
2023/05/30 01:30:55;;;;;;;8.23;5.00;;;17.20;64.20;;;;;;5021516;28;20429;-75
2023/05/30 01:33:22;;;;;;;9.57;5.20;;;17.30;63.80;;;;;;5017078;28;20928;-76
2023/05/30 01:35:48;;;;;;;10.47;5.70;;;17.30;63.70;;;;;;5010772;28;20429;-75
2023/05/30 01:38:14;;;;;;;9.93;5.20;;;17.30;63.50;;;;;;5009814;28;20987;-75
2023/05/30 01:40:45;;;;;;;11.80;5.43;;;17.30;63.50;;;;;;5007398;28;20454;-76
2023/05/30 01:43:26;;;;;;;10.10;4.90;;;17.30;63.50;;;;;;5007885;28;20775;-77
2023/05/30 01:46:00;;;;;;;12.40;4.93;;;17.10;64.10;;;;;;5009957;28;20471;-76
2023/05/30 01:48:40;;;;;;;7.70;4.50;;;17.10;64.20;;;;;;5007479;28;20469;-77
2023/05/30 01:51:12;;;;;;;13.83;5.63;;;17.20;64.10;;;;;;5012772;28;20455;-76
2023/05/30 01:53:46;;;;;;;7.40;4.57;;;17.20;64.10;;;;;;5013838;28;20457;-75
2023/05/30 01:56:14;;;;;;;10.47;4.57;;;17.20;64.50;;;;;;5011537;28;20809;-76
2023/05/30 01:58:40;;;;;;;8.20;4.50;;;17.10;64.50;;;;;;5006326;28;20847;-76
2023/05/30 02:01:07;;;;;;;9.43;5.37;;;17.10;64.70;;;;;;5009713;28;20414;-76
2023/05/30 02:03:33;;;;;;;8.43;5.40;;;17.10;65.30;;;;;;5013127;28;20800;-75
2023/05/30 02:06:00;;;;;;;10.20;5.20;;;17.00;65.60;;;;;;5012194;28;20425;-76
2023/05/30 02:08:26;;;;;;;7.63;4.63;;;16.90;66.00;;;;;;5007169;28;20210;-76
2023/05/30 02:10:52;;;;;;;10.80;5.17;;;16.80;66.30;;;;;;5012674;28;20424;-75
2023/05/30 02:13:18;;;;;;;6.83;4.43;;;16.70;66.90;;;;;;5010650;28;20956;-75
2023/05/30 02:15:43;;;;;;;10.37;4.73;;;16.60;67.00;;;;;;5011540;28;20193;-76
2023/05/30 02:18:10;;;;;;;7.20;4.47;;;16.40;67.30;;;;;;5007543;28;20291;-76
2023/05/30 02:20:36;;;;;;;11.03;5.90;;;16.40;67.60;;;;;;5007885;28;20194;-74
2023/05/30 02:23:02;;;;;;;7.40;4.60;;;16.30;67.60;;;;;;5008272;28;20448;-75
2023/05/30 02:25:28;;;;;;;8.97;5.20;;;16.20;67.90;;;;;;5008376;28;20424;-74
2023/05/30 02:27:53;;;;;;;9.00;4.80;;;16.20;67.90;;;;;;5005621;28;20423;-74
2023/05/30 02:30:19;;;;;;;7.70;4.50;;;16.00;68.30;;;;;;5004843;28;20263;-75
2023/05/30 02:32:45;;;;;;;9.80;5.57;;;15.90;68.80;;;;;;5003264;28;20280;-75
2023/05/30 02:35:10;;;;;;;10.77;5.73;;;15.90;68.90;;;;;;5006071;28;20716;-72
2023/05/30 02:37:36;;;;;;;9.90;5.37;;;15.90;68.90;;;;;;5011272;28;20571;-73
2023/05/30 02:40:01;;;;;;;17.13;4.90;;;15.80;69.20;;;;;;5003880;28;20631;-72
2023/05/30 02:42:27;;;;;;;8.27;5.47;;;15.70;69.50;;;;;;5009221;28;20276;-73
2023/05/30 02:44:53;;;;;;;7.73;4.90;;;15.70;69.40;;;;;;5008319;28;20193;-73
2023/05/30 02:47:19;;;;;;;12.13;4.50;;;15.60;69.70;;;;;;5008404;28;20429;-76
2023/05/30 02:49:44;;;;;;;8.93;5.10;;;15.60;69.80;;;;;;5004838;28;20222;-74
2023/05/30 02:52:10;;;;;;;13.70;5.30;;;15.60;69.80;;;;;;5005737;28;20208;-74
2023/05/30 02:54:38;;;;;;;7.10;5.03;;;15.60;69.90;;;;;;5007889;28;20235;-74
2023/05/30 02:57:04;;;;;;;8.27;5.53;;;15.60;69.90;;;;;;5002401;28;20188;-75
2023/05/30 02:59:30;;;;;;;10.10;5.40;;;15.60;70.10;;;;;;5002437;28;20477;-73
2023/05/30 03:01:56;;;;;;;9.47;5.20;;;15.60;70.10;;;;;;5001347;28;21105;-73
2023/05/30 03:04:21;;;;;;;8.27;4.90;;;15.50;70.20;;;;;;5005948;28;20194;-73
2023/05/30 03:06:49;;;;;;;9.73;4.73;;;15.50;70.10;;;;;;5004851;28;20194;-75
2023/05/30 03:09:15;;;;;;;14.60;5.90;;;15.50;70.40;;;;;;5002044;28;20302;-73
2023/05/30 03:11:41;;;;;;;8.07;5.17;;;15.50;70.40;;;;;;5006217;28;20428;-74
2023/05/30 03:14:06;;;;;;;8.57;4.60;;;15.40;70.50;;;;;;5006198;28;20428;-73
2023/05/30 03:16:32;;;;;;;8.97;5.37;;;15.30;70.70;;;;;;5009125;28;20207;-73
2023/05/30 03:18:58;;;;;;;7.50;5.10;;;15.30;70.70;;;;;;5006187;28;20214;-73
2023/05/30 03:21:23;;;;;;;8.23;4.80;;;15.30;70.80;;;;;;5008323;28;20633;-74
2023/05/30 03:23:49;;;;;;;8.67;4.57;;;15.30;70.70;;;;;;5010123;28;20221;-74
2023/05/30 03:26:15;;;;;;;8.17;4.87;;;15.30;70.80;;;;;;5008467;28;20605;-74
2023/05/30 03:28:41;;;;;;;8.10;4.70;;;15.30;70.80;;;;;;5005594;28;20213;-73
2023/05/30 03:31:06;;;;;;;8.17;4.83;;;15.20;70.70;;;;;;5014120;28;20433;-73
2023/05/30 03:33:32;;;;;;;9.20;4.90;;;15.20;70.80;;;;;;5014863;28;20197;-74
2023/05/30 03:35:58;;;;;;;7.47;4.73;;;15.20;70.80;;;;;;5010788;28;20204;-72
2023/05/30 03:38:23;;;;;;;11.00;5.13;;;15.30;70.80;;;;;;5006465;28;20209;-73
2023/05/30 03:40:49;;;;;;;10.10;5.37;;;15.30;70.80;;;;;;5005263;28;20555;-73
2023/05/30 03:43:15;;;;;;;7.00;4.67;;;15.30;70.70;;;;;;5010179;28;20595;-73
2023/05/30 03:45:40;;;;;;;15.47;4.87;;;15.30;70.80;;;;;;5009270;28;20190;-73
2023/05/30 03:48:06;;;;;;;9.73;5.00;;;15.30;70.80;;;;;;5008177;28;20212;-73
2023/05/30 03:50:31;;;;;;;10.50;5.57;;;15.20;70.80;;;;;;5005910;28;20754;-75
2023/05/30 03:52:57;;;;;;;11.20;4.93;;;15.20;71.00;;;;;;5008344;28;20251;-74
2023/05/30 03:55:22;;;;;;;10.00;4.93;;;15.20;71.00;;;;;;5008318;28;20216;-75
2023/05/30 03:57:48;;;;;;;11.10;5.70;;;15.20;71.00;;;;;;5005861;28;20200;-76
2023/05/30 04:00:14;;;;;;;7.60;4.90;;;15.30;71.00;;;;;;5006964;28;20249;-73
2023/05/30 04:02:39;;;;;;;9.73;5.03;;;15.30;71.00;;;;;;5010509;28;20195;-74
2023/05/30 04:05:05;;;;;;;9.50;4.60;;;15.20;71.10;;;;;;5005060;28;20483;-73
2023/05/30 04:07:35;;;;;;;8.47;4.37;;;15.20;71.10;;;;;;5008079;28;20191;-74
2023/05/30 04:10:02;;;;;;;7.83;5.00;;;15.20;71.10;;;;;;5007463;28;20490;-74
2023/05/30 04:12:28;;;;;;;8.27;4.70;;;15.20;71.10;;;;;;5010170;28;20423;-74
2023/05/30 04:14:54;;;;;;;9.60;5.00;;;15.30;71.00;;;;;;5010727;28;20880;-74
2023/05/30 04:17:20;;;;;;;10.43;5.40;;;15.30;71.00;;;;;;5009848;28;20432;-73
2023/05/30 04:19:46;;;;;;;6.80;4.50;;;15.40;70.80;;;;;;5007208;28;20241;-76
2023/05/30 04:22:11;;;;;;;9.40;5.60;;;15.50;70.70;;;;;;5010204;28;20572;-73
2023/05/30 04:24:37;;;;;;;12.23;5.20;;;15.50;70.50;;;;;;5008715;28;20457;-73
2023/05/30 04:27:03;;;;;;;10.37;5.03;;;15.50;70.20;;;;;;5006467;28;20255;-74
2023/05/30 04:29:28;;;;;;;10.03;5.50;;;15.60;70.40;;;;;;5006044;28;20625;-73
2023/05/30 04:31:54;;;;;;;9.27;5.70;;;15.70;69.90;;;;;;5010198;28;20193;-74
2023/05/30 04:34:19;;;;;;;12.60;5.87;;;15.80;69.70;;;;;;5010496;28;20249;-73
2023/05/30 04:36:45;;;;;;;10.10;5.03;;;15.80;69.80;;;;;;5010295;28;20213;-73
2023/05/30 04:39:11;;;;;;;10.27;5.77;;;15.90;69.80;;;;;;5009161;28;20217;-74
2023/05/30 04:41:37;;;;;;;10.70;5.90;;;15.90;69.50;;;;;;5009098;28;20190;-74
2023/05/30 04:44:03;;;;;;;9.37;5.07;;;15.90;69.70;;;;;;5010719;28;20780;-73
2023/05/30 04:46:29;;;;;;;8.37;5.40;;;16.00;69.50;;;;;;5010535;28;20206;-73
2023/05/30 04:49:00;;;;;;;13.80;6.20;;;16.00;69.70;;;;;;5004789;28;20842;-73
2023/05/30 04:51:26;;;;;;;8.70;5.10;;;16.00;69.70;;;;;;5008530;28;20935;-75
2023/05/30 04:53:53;;;;;;;10.67;6.00;;;16.20;69.80;;;;;;5010294;28;20970;-73
2023/05/30 04:56:22;;;;;;;14.07;6.27;;;16.30;69.10;;;;;;5005637;28;20449;-74
2023/05/30 04:58:48;;;;;;;10.73;5.53;;;16.00;69.50;;;;;;5004494;28;20533;-72
2023/05/30 05:01:14;;;;;;;9.83;5.53;;;15.90;69.90;;;;;;5009838;28;20842;-73
2023/05/30 05:03:41;;;;;;;13.37;5.80;;;15.80;69.90;;;;;;5011219;28;20452;-73
2023/05/30 05:06:07;;;;;;;12.87;6.50;;;15.90;70.20;;;;;;5012946;28;20606;-73
2023/05/30 05:08:34;;;;;;;17.03;6.20;;;15.80;70.10;;;;;;5007383;28;20803;-75
2023/05/30 05:11:04;;;;;;;13.70;6.23;;;15.80;70.50;;;;;;5008093;28;20433;-73
2023/05/30 05:13:30;;;;;;;14.60;5.53;;;15.70;70.50;;;;;;5013946;28;20474;-72
2023/05/30 05:15:57;;;;;;;11.80;6.10;;;15.70;70.40;;;;;;5010897;28;20483;-73
2023/05/30 05:18:22;;;;;;;8.97;5.70;;;15.60;70.50;;;;;;5007602;28;20571;-72
2023/05/30 05:20:48;;;;;;;12.43;6.20;;;15.60;70.40;;;;;;5015973;28;20454;-75
2023/05/30 05:23:14;;;;;;;11.20;5.10;;;15.50;71.00;;;;;;5017583;28;20969;-74
2023/05/30 05:25:40;;;;;;;10.73;5.60;;;15.60;70.80;;;;;;5012088;28;20201;-71
2023/05/30 05:28:06;;;;;;;11.80;5.73;;;15.80;70.40;;;;;;5014797;28;20527;-73
2023/05/30 05:30:31;;;;;;;11.57;6.40;;;15.60;70.40;;;;;;5015714;28;20678;-72
2023/05/30 05:32:57;;;;;;;12.93;6.43;;;15.80;70.50;;;;;;5016075;28;20435;-73
2023/05/30 05:35:22;;;;;;;10.57;5.93;;;15.80;69.80;;;;;;5015820;28;21055;-74
2023/05/30 05:37:48;;;;;;;10.67;5.40;;;15.90;70.10;;;;;;5015776;28;20708;-72
2023/05/30 05:40:14;;;;;;;12.43;5.90;;;15.90;69.90;;;;;;5012372;28;20213;-72
2023/05/30 05:42:42;;;;;;;15.50;6.47;;;15.90;70.40;;;;;;5015278;28;20556;-73
2023/05/30 05:45:08;;;;;;;11.87;6.10;;;15.80;70.20;;;;;;5012345;28;20208;-74
2023/05/30 05:47:34;;;;;;;8.53;5.53;;;15.60;70.80;;;;;;5016838;28;20927;-74
2023/05/30 05:49:59;;;;;;;11.07;6.20;;;15.70;70.80;;;;;;5009318;28;20462;-73
2023/05/30 05:52:25;;;;;;;10.70;6.27;;;15.80;70.10;;;;;;5015732;28;20200;-72
2023/05/30 05:54:51;;;;;;;13.70;6.00;;;15.90;69.80;;;;;;5015766;28;20236;-72
2023/05/30 05:57:16;;;;;;;8.43;5.17;;;15.90;69.90;;;;;;5015535;28;20601;-73
2023/05/30 05:59:42;;;;;;;12.10;5.70;;;16.10;69.80;;;;;;5008531;28;20213;-73
2023/05/30 06:02:07;;;;;;;10.20;5.60;;;16.20;69.50;;;;;;5014340;28;20611;-74
2023/05/30 06:04:33;;;;;;;10.97;5.37;;;16.00;69.50;;;;;;5014233;28;20184;-73
2023/05/30 06:06:59;;;;;;;15.57;5.60;;;16.10;69.80;;;;;;5012450;28;20181;-72
2023/05/30 06:09:30;;;;;;;10.80;5.17;;;16.20;69.20;;;;;;5013517;28;20693;-72
2023/05/30 06:11:56;;;;;;;10.50;5.80;;;16.40;68.80;;;;;;5012915;28;21052;-72
2023/05/30 06:14:22;;;;;;;10.40;5.57;;;16.10;69.50;;;;;;5014035;28;20518;-72
2023/05/30 06:16:48;;;;;;;10.50;5.67;;;16.20;69.20;;;;;;5012681;28;20456;-71
2023/05/30 06:19:13;;;;;;;9.60;5.00;;;16.20;69.40;;;;;;5013445;28;20515;-73
2023/05/30 06:21:39;;;;;;;11.10;5.50;;;16.30;69.40;;;;;;5013685;28;20323;-73
2023/05/30 06:24:06;;;;;;;11.20;5.30;;;16.50;68.20;;;;;;5011582;28;20188;-73
2023/05/30 06:26:32;;;;;;;9.43;5.40;;;16.60;67.00;;;;;;5013503;28;20553;-74
2023/05/30 06:28:57;;;;;;;9.07;5.40;;;16.50;67.20;;;;;;5010879;28;20439;-73
2023/05/30 06:31:23;;;;;;;9.90;5.40;;;16.40;67.20;;;;;;5013551;28;20190;-74
2023/05/30 06:33:48;;;;;;;10.37;5.47;;;16.60;67.30;;;;;;5013559;28;20583;-74
2023/05/30 06:36:14;;;;;;;10.87;5.30;;;16.90;66.30;;;;;;5013313;28;20217;-73
2023/05/30 06:38:40;;;;;;;9.40;5.33;;;16.90;65.70;;;;;;5010966;28;20211;-74
2023/05/30 06:41:06;;;;;;;11.47;5.90;;;17.10;65.60;;;;;;5013558;28;20214;-74
2023/05/30 06:43:31;;;;;;;12.97;5.43;;;17.00;66.10;;;;;;5013696;28;20237;-72
2023/05/30 06:45:57;;;;;;;13.70;6.67;;;16.90;66.00;;;;;;5014994;28;20221;-72
2023/05/30 06:48:22;;;;;;;14.07;5.23;;;16.70;66.10;;;;;;5010426;28;20207;-73
2023/05/30 06:50:48;;;;;;;7.87;5.20;;;16.60;66.90;;;;;;5016303;28;20194;-74
2023/05/30 06:53:13;;;;;;;14.33;5.00;;;16.60;66.70;;;;;;5013601;28;20198;-72
2023/05/30 06:55:39;;;;;;;14.63;6.13;;;16.50;67.50;;;;;;5009836;28;20185;-72
2023/05/30 06:58:05;;;;;;;8.93;5.27;;;16.70;66.90;;;;;;5013174;28;20186;-74
2023/05/30 07:00:31;;;;;;;11.60;5.60;;;16.50;67.50;;;;;;5009426;28;20295;-73
2023/05/30 07:02:57;;;;;;;11.40;5.00;;;16.70;67.20;;;;;;5013472;28;20456;-75
2023/05/30 07:05:22;;;;;;;14.93;5.37;;;16.80;67.00;;;;;;5012450;28;20439;-73
2023/05/30 07:07:48;;;;;;;11.20;5.00;;;17.00;66.10;;;;;;5012374;28;20186;-73
2023/05/30 07:10:14;;;;;;;8.63;4.80;;;17.00;66.60;;;;;;5008095;28;20654;-73
2023/05/30 07:12:40;;;;;;;14.10;5.47;;;16.90;66.40;;;;;;5012769;28;20192;-74
2023/05/30 07:15:06;;;;;;;12.67;4.90;;;17.00;66.10;;;;;;5005256;28;20270;-73
2023/05/30 07:17:32;;;;;;;10.07;5.20;;;17.00;65.80;;;;;;5012884;28;20240;-73
2023/05/30 07:19:58;;;;;;;9.23;5.30;;;17.00;66.30;;;;;;5011916;28;20478;-75
2023/05/30 07:22:23;;;;;;;10.70;5.27;;;17.00;66.10;;;;;;5009617;28;20421;-73
2023/05/30 07:24:49;;;;;;;11.87;5.73;;;17.00;66.30;;;;;;5011982;28;20276;-71
2023/05/30 07:27:15;;;;;;;11.07;5.50;;;17.20;66.00;;;;;;5010166;28;20220;-75
2023/05/30 07:29:40;;;;;;;12.83;5.23;;;17.20;65.60;;;;;;5010931;28;20215;-73
2023/05/30 07:32:06;;;;;;;10.67;4.50;;;17.10;66.00;;;;;;5014027;28;20195;-74
2023/05/30 07:34:32;;;;;;;12.97;5.37;;;17.40;65.70;;;;;;5016361;28;20206;-73
2023/05/30 07:36:57;;;;;;;12.50;6.13;;;17.30;65.70;;;;;;5008416;28;20197;-74
2023/05/30 07:39:23;;;;;;;9.80;4.90;;;17.10;66.30;;;;;;5014296;28;20232;-73
2023/05/30 07:41:49;;;;;;;14.97;5.57;;;17.40;66.10;;;;;;5014254;28;20197;-73
2023/05/30 07:44:14;;;;;;;10.10;5.47;;;17.50;65.30;;;;;;5014355;28;20421;-73
2023/05/30 07:46:40;;;;;;;11.60;5.67;;;17.10;66.00;;;;;;5014724;28;20190;-76
2023/05/30 07:49:07;;;;;;;13.80;5.43;;;17.10;66.60;;;;;;5005346;28;20577;-76
2023/05/30 07:51:32;;;;;;;11.03;4.87;;;17.00;66.40;;;;;;5011947;28;20216;-76
2023/05/30 07:53:58;;;;;;;13.40;5.17;;;17.00;67.00;;;;;;5011830;28;20428;-72
2023/05/30 07:56:23;;;;;;;12.27;6.40;;;17.10;66.60;;;;;;5011747;28;20189;-74
2023/05/30 07:58:49;;;;;;;8.20;4.90;;;17.00;66.40;;;;;;5002646;28;20286;-72
2023/05/30 08:01:15;;;;;;;14.40;5.60;;;17.10;66.40;;;;;;5006961;28;20187;-72
2023/05/30 08:03:41;;;;;;;11.30;5.33;;;17.20;66.60;;;;;;5012199;28;20247;-72
2023/05/30 08:06:07;;;;;;;12.40;5.93;;;17.20;66.70;;;;;;5010341;28;20421;-72
2023/05/30 08:08:32;;;;;;;15.27;5.73;;;17.20;66.40;;;;;;5007168;28;20279;-73
2023/05/30 08:10:58;;;;;;;10.40;5.57;;;17.20;66.90;;;;;;5004619;28;20225;-72
2023/05/30 08:13:27;;;;;;;15.00;5.40;;;17.40;66.30;;;;;;5011375;28;20185;-72
2023/05/30 08:15:52;;;;;;;11.93;5.60;;;17.50;65.70;;;;;;5011070;28;20195;-74
2023/05/30 08:18:18;;;;;;;9.30;5.47;;;17.80;65.30;;;;;;5008352;28;20550;-74
2023/05/30 08:20:44;;;;;;;12.77;6.03;;;17.90;65.00;;;;;;5009335;28;20219;-72
2023/05/30 08:23:10;;;;;;;9.80;5.53;;;18.00;65.00;;;;;;5010032;28;20252;-73
2023/05/30 08:25:42;;;;;;;9.70;5.47;;;18.00;64.10;;;;;;5011748;28;20426;-76
2023/05/30 08:28:07;;;;;;;12.57;5.57;;;18.10;63.50;;;;;;5009437;28;20265;-73
2023/05/30 08:30:33;;;;;;;10.00;5.10;;;18.30;63.20;;;;;;5008879;28;20520;-75
2023/05/30 08:32:58;;;;;;;10.87;5.70;;;18.10;63.10;;;;;;5011522;28;20198;-73
2023/05/30 08:35:24;;;;;;;10.17;5.00;;;17.80;64.10;;;;;;5009848;28;20323;-75
2023/05/30 08:37:50;;;;;;;9.83;4.60;;;17.90;64.10;;;;;;5011387;28;20200;-73
2023/05/30 08:40:15;;;;;;;13.20;4.93;;;18.00;63.70;;;;;;5008897;28;20231;-74
2023/05/30 08:42:42;;;;;;;11.03;4.77;;;18.20;62.80;;;;;;5011500;28;20294;-73
2023/05/30 08:45:08;;;;;;;9.70;6.20;;;18.50;61.70;;;;;;5009612;28;20211;-72
2023/05/30 08:47:35;;;;;;;8.67;5.00;;;18.50;60.90;;;;;;5007925;28;20433;-72
2023/05/30 08:50:07;;;;;;;12.23;5.10;;;18.20;61.20;;;;;;5006542;28;20464;-73
2023/05/30 08:52:32;;;;;;;9.03;5.10;;;18.30;61.50;;;;;;5011395;28;20487;-72
2023/05/30 08:55:16;;;;;;;11.30;5.40;;;18.50;61.50;;;;;;5011051;28;20421;-73
2023/05/30 08:57:56;;;;;;;10.13;4.70;;;18.80;60.40;;;;;;5007946;28;20192;-76
2023/05/30 09:00:23;;;;;;;9.73;5.00;;;18.70;60.30;;;;;;5006143;28;20492;-71
2023/05/30 09:02:51;;;;;;;10.40;5.50;;;18.60;60.40;;;;;;5010948;28;20424;-74
2023/05/30 09:05:17;;;;;;;8.50;4.67;;;18.80;60.40;;;;;;5010490;28;20428;-73
2023/05/30 09:07:44;;;;;;;9.87;5.40;;;18.80;60.40;;;;;;5007207;28;20917;-72
2023/05/30 09:10:11;;;;;;;8.87;4.63;;;18.90;60.40;;;;;;5008328;28;20475;-72
2023/05/30 09:12:37;;;;;;;11.23;5.10;;;18.90;60.30;;;;;;5009863;28;20976;-72
2023/05/30 09:15:03;;;;;;;7.63;5.50;;;19.10;59.90;;;;;;5010808;28;20449;-74
2023/05/30 09:17:29;;;;;;;10.10;4.80;;;19.00;59.90;;;;;;5010640;28;20198;-73
2023/05/30 09:19:56;;;;;;;8.43;4.80;;;19.00;59.70;;;;;;5005195;28;20477;-73
2023/05/30 09:22:22;;;;;;;10.10;4.90;;;19.00;60.10;;;;;;5009716;28;20192;-74
2023/05/30 09:25:00;;;;;;;9.20;4.83;;;19.00;60.30;;;;;;5011403;28;20425;-72
2023/05/30 09:27:27;;;;;;;14.03;5.20;;;19.10;60.00;;;;;;5010976;28;20456;-73
2023/05/30 09:29:53;;;;;;;17.10;5.80;;;19.30;59.70;;;;;;5010745;28;20468;-73
2023/05/30 09:32:20;;;;;;;8.57;5.00;;;19.20;60.00;;;;;;5011191;28;20430;-73
2023/05/30 09:34:55;;;;;;;8.50;4.60;;;19.30;59.70;;;;;;5015382;28;20196;-73
2023/05/30 09:37:21;;;;;;;9.07;5.30;;;19.50;59.50;;;;;;5005559;28;20523;-74
2023/05/30 09:40:06;;;;;;;8.87;5.17;;;19.70;58.80;;;;;;5011573;28;20568;-72
2023/05/30 09:42:44;;;;;;;10.00;5.30;;;19.80;58.10;;;;;;5016346;28;20185;-73
2023/05/30 09:45:14;;;;;;;11.90;6.07;;;19.70;57.60;;;;;;5017334;28;20417;-73
2023/05/30 09:47:41;;;;;;;8.93;4.77;;;19.70;58.00;;;;;;5014078;28;20501;-73
2023/05/30 09:50:08;;;;;;;11.83;5.17;;;19.70;58.00;;;;;;5015647;28;20839;-73
2023/05/30 09:52:34;;;;;;;10.03;5.20;;;19.70;58.00;;;;;;5017843;28;20447;-73
2023/05/30 09:55:05;;;;;;;9.33;4.90;;;19.80;57.80;;;;;;5016446;28;20421;-72
2023/05/30 09:57:32;;;;;;;9.60;4.77;;;20.00;57.40;;;;;;5016490;28;20451;-74
2023/05/30 09:59:58;;;;;;;8.70;4.70;;;19.90;57.80;;;;;;5016068;28;20471;-73
2023/05/30 10:02:23;;;;;;;11.67;4.70;;;20.00;57.70;;;;;;5016376;28;21078;-73
2023/05/30 10:04:52;;;;;;;10.20;4.53;;;20.20;56.90;;;;;;5016307;28;20510;-73
2023/05/30 10:07:22;;;;;;;11.07;4.70;;;20.60;55.80;;;;;;5014895;28;20195;-73
2023/05/30 10:09:51;;;;;;;7.00;4.30;;;21.00;54.10;;;;;;5006536;28;20481;-73
2023/05/30 10:12:17;;;;;;;9.13;4.80;;;21.40;53.40;;;;;;5015441;28;20502;-75
2023/05/30 10:14:43;;;;;;;18.63;6.00;;;21.70;52.50;;;;;;5008482;28;20440;-75
2023/05/30 10:17:16;;;;;;;11.50;5.10;;;21.50;52.90;;;;;;5012243;28;20181;-72
2023/05/30 10:19:55;;;;;;;15.67;5.60;;;21.90;52.50;;;;;;5009663;28;20479;-73
2023/05/30 10:22:23;;;;;;;6.40;4.60;;;21.70;50.90;;;;;;5010161;28;20434;-73
2023/05/30 10:24:50;;;;;;;12.13;4.57;;;22.10;51.40;;;;;;5012822;28;20754;-72
2023/05/30 10:27:21;;;;;;;12.80;4.73;;;22.50;50.60;;;;;;5008747;28;20465;-74
2023/05/30 10:29:47;;;;;;;9.10;5.33;;;22.60;50.30;;;;;;5009179;28;21027;-74
2023/05/30 10:32:18;;;;;;;15.97;5.17;;;23.10;49.40;;;;;;5013560;28;20417;-75
2023/05/30 10:34:56;;;;;;;8.63;5.33;;;23.00;49.30;;;;;;5008821;28;20510;-74
2023/05/30 10:37:23;;;;;;;7.97;4.27;;;22.30;51.40;;;;;;5007686;28;20418;-76
2023/05/30 10:39:58;;;;;;;9.60;4.50;;;22.60;51.00;;;;;;5012486;28;20494;-74
2023/05/30 10:42:31;;;;;;;9.07;4.63;;;23.10;48.60;;;;;;5013238;28;20431;-76
2023/05/30 10:45:16;;;;;;;8.60;5.20;;;22.50;49.10;;;;;;5008103;28;20438;-77
2023/05/30 10:48:18;;;;;;;9.20;4.90;;;22.30;50.10;;;;;;5013677;28;20519;-72
2023/05/30 10:50:48;;;;;;;10.67;5.40;;;22.10;51.00;;;;;;5008615;28;20448;-75
2023/05/30 10:53:18;;;;;;;9.87;5.40;;;22.00;50.70;;;;;;5008130;28;20984;-77
2023/05/30 10:55:47;;;;;;;10.80;5.27;;;21.40;52.10;;;;;;5008282;28;20987;-75
2023/05/30 10:58:38;;;;;;;9.03;4.67;;;21.40;52.40;;;;;;5012539;28;20551;-77
2023/05/30 11:01:24;;;;;;;10.93;5.43;;;21.90;51.00;;;;;;5008620;28;20949;-74
2023/05/30 11:03:58;;;;;;;8.57;4.87;;;21.70;51.20;;;;;;5011425;28;20924;-75
2023/05/30 11:06:26;;;;;;;8.37;4.70;;;22.20;50.60;;;;;;5006915;28;20429;-75
2023/05/30 11:09:04;;;;;;;9.20;5.13;;;22.90;49.70;;;;;;5011427;28;20478;-76
2023/05/30 11:11:53;;;;;;;14.90;4.67;;;23.20;47.50;;;;;;5008115;28;20465;-76
2023/05/30 11:14:30;;;;;;;8.97;4.37;;;23.30;48.20;;;;;;5003696;28;20453;-77
2023/05/30 11:17:08;;;;;;;7.73;4.67;;;23.70;47.50;;;;;;5010692;28;20424;-75
2023/05/30 11:19:38;;;;;;;8.93;4.70;;;23.70;46.60;;;;;;5011054;28;21025;-75
2023/05/30 11:22:10;;;;;;;8.67;5.00;;;23.00;48.20;;;;;;5013974;28;20938;-75
2023/05/30 11:24:36;;;;;;;8.53;4.50;;;23.00;48.30;;;;;;5014970;28;20511;-75
2023/05/30 11:27:07;;;;;;;5.27;3.97;;;23.60;47.80;;;;;;5006490;28;20431;-74
2023/05/30 11:29:53;;;;;;;8.23;5.03;;;24.10;47.10;;;;;;5010029;28;20206;-75
2023/05/30 11:32:28;;;;;;;12.03;4.90;;;24.60;44.90;;;;;;5014420;28;20948;-76
2023/05/30 11:35:03;;;;;;;9.87;4.57;;;23.60;46.20;;;;;;5017085;28;20434;-75
2023/05/30 11:37:35;;;;;;;7.03;4.20;;;23.10;48.20;;;;;;5014049;28;20431;-73
2023/05/30 11:40:01;;;;;;;11.07;4.60;;;23.50;46.60;;;;;;5010364;28;20477;-75
2023/05/30 11:42:28;;;;;;;9.50;4.63;;;23.50;45.90;;;;;;5012166;28;20428;-76
2023/05/30 11:44:54;;;;;;;9.80;4.23;;;23.40;46.30;;;;;;5012176;28;20421;-74
2023/05/30 11:47:20;;;;;;;9.27;4.57;;;23.60;45.80;;;;;;5010004;28;20467;-74
2023/05/30 11:49:46;;;;;;;7.67;4.13;;;23.70;45.80;;;;;;5010366;28;20504;-73
2023/05/30 11:52:14;;;;;;;7.27;4.47;;;24.20;44.60;;;;;;5010489;28;20195;-73
2023/05/30 11:54:40;;;;;;;8.40;4.43;;;24.20;43.90;;;;;;5009724;28;20185;-73
2023/05/30 11:57:07;;;;;;;8.47;5.03;;;23.90;44.90;;;;;;5010564;28;20429;-75
2023/05/30 11:59:33;;;;;;;8.97;4.43;;;23.40;45.50;;;;;;5001970;28;21058;-74
2023/05/30 12:02:00;;;;;;;10.93;5.43;;;22.80;45.80;;;;;;5011993;28;20427;-76
2023/05/30 12:04:30;;;;;;;7.60;4.20;;;22.70;46.20;;;;;;4998994;28;20284;-75
2023/05/30 12:07:06;;;;;;;6.70;4.20;;;22.80;46.70;;;;;;5011316;28;20847;-76
2023/05/30 12:09:41;;;;;;;9.03;4.90;;;23.10;46.60;;;;;;5006468;28;20520;-74
2023/05/30 12:12:07;;;;;;;9.27;5.10;;;23.30;45.50;;;;;;5005277;28;20429;-74
2023/05/30 12:14:43;;;;;;;6.93;4.40;;;23.40;45.00;;;;;;5011944;28;20424;-74
2023/05/30 12:17:13;;;;;;;10.77;6.00;;;23.80;44.70;;;;;;5005329;28;20412;-75
2023/05/30 12:19:41;;;;;;;16.80;4.53;;;23.90;44.10;;;;;;5002151;28;20472;-76
2023/05/30 12:22:07;;;;;;;12.67;5.17;;;23.80;44.60;;;;;;5012039;28;20413;-76
2023/05/30 12:24:36;;;;;;;6.83;4.17;;;23.70;44.70;;;;;;5013092;28;20820;-74
2023/05/30 12:27:04;;;;;;;7.77;4.30;;;24.10;44.20;;;;;;5010847;28;20203;-75
2023/05/30 12:29:34;;;;;;;8.70;4.97;;;23.60;44.10;;;;;;5006773;28;20461;-76
2023/05/30 12:32:01;;;;;;;8.63;4.80;;;23.30;45.00;;;;;;5011543;28;20431;-72
2023/05/30 12:34:37;;;;;;;8.97;4.27;;;23.80;44.90;;;;;;5011488;28;20422;-74
2023/05/30 12:37:06;;;;;;;6.60;4.27;;;23.20;45.30;;;;;;5009221;28;20432;-75
2023/05/30 12:39:32;;;;;;;6.80;4.23;;;23.60;44.60;;;;;;5009309;28;20474;-75
2023/05/30 12:41:58;;;;;;;7.67;4.33;;;24.00;43.90;;;;;;5010194;28;20425;-74
2023/05/30 12:44:23;;;;;;;6.43;4.27;;;23.80;43.80;;;;;;5011745;28;20422;-74